sensor_id;sensor_type;location;lat;lon;timestamp;temperature;humidity
54202;DHT22;40108;53.152;5.844;2022-12-07T00:01:07;3.70;96.30
54202;DHT22;40108;53.152;5.844;2022-12-07T00:03:33;3.70;96.20
54202;DHT22;40108;53.152;5.844;2022-12-07T00:06:00;3.70;96.20
54202;DHT22;40108;53.152;5.844;2022-12-07T00:08:26;3.70;96.20
54202;DHT22;40108;53.152;5.844;2022-12-07T00:10:51;3.70;96.20
54202;DHT22;40108;53.152;5.844;2022-12-07T00:13:17;3.60;96.10
54202;DHT22;40108;53.152;5.844;2022-12-07T00:15:43;3.60;96.20
54202;DHT22;40108;53.152;5.844;2022-12-07T00:18:09;3.50;96.20
54202;DHT22;40108;53.152;5.844;2022-12-07T00:20:34;3.60;96.20
54202;DHT22;40108;53.152;5.844;2022-12-07T00:23:00;3.60;96.20
54202;DHT22;40108;53.152;5.844;2022-12-07T00:25:25;3.70;96.40
54202;DHT22;40108;53.152;5.844;2022-12-07T00:27:54;3.70;96.40
54202;DHT22;40108;53.152;5.844;2022-12-07T00:30:22;3.70;96.40
54202;DHT22;40108;53.152;5.844;2022-12-07T00:32:49;3.80;96.40
54202;DHT22;40108;53.152;5.844;2022-12-07T00:35:14;3.80;96.50
54202;DHT22;40108;53.152;5.844;2022-12-07T00:37:40;3.80;96.60
54202;DHT22;40108;53.152;5.844;2022-12-07T00:40:06;3.90;96.60
54202;DHT22;40108;53.152;5.844;2022-12-07T00:42:32;4.00;96.70
54202;DHT22;40108;53.152;5.844;2022-12-07T00:44:58;4.10;96.60
54202;DHT22;40108;53.152;5.844;2022-12-07T00:47:23;4.20;96.60
54202;DHT22;40108;53.152;5.844;2022-12-07T00:49:49;4.20;96.50
54202;DHT22;40108;53.152;5.844;2022-12-07T00:52:15;4.20;96.40
54202;DHT22;40108;53.152;5.844;2022-12-07T00:54:40;4.30;96.10
54202;DHT22;40108;53.152;5.844;2022-12-07T00:57:06;4.30;96.00
54202;DHT22;40108;53.152;5.844;2022-12-07T00:59:31;4.30;96.00
54202;DHT22;40108;53.152;5.844;2022-12-07T01:01:57;4.20;95.90
54202;DHT22;40108;53.152;5.844;2022-12-07T01:04:23;4.20;95.80
54202;DHT22;40108;53.152;5.844;2022-12-07T01:06:48;4.10;95.80
54202;DHT22;40108;53.152;5.844;2022-12-07T01:09:14;4.00;95.70
54202;DHT22;40108;53.152;5.844;2022-12-07T01:11:40;3.90;95.70
54202;DHT22;40108;53.152;5.844;2022-12-07T01:14:06;3.90;95.60
54202;DHT22;40108;53.152;5.844;2022-12-07T01:16:32;3.70;95.50
54202;DHT22;40108;53.152;5.844;2022-12-07T01:18:59;3.70;95.50
54202;DHT22;40108;53.152;5.844;2022-12-07T01:21:31;3.70;95.60
54202;DHT22;40108;53.152;5.844;2022-12-07T01:24:02;3.70;95.80
54202;DHT22;40108;53.152;5.844;2022-12-07T01:26:28;3.90;96.00
54202;DHT22;40108;53.152;5.844;2022-12-07T01:28:54;4.10;96.00
54202;DHT22;40108;53.152;5.844;2022-12-07T01:31:22;4.20;95.80
54202;DHT22;40108;53.152;5.844;2022-12-07T01:33:51;4.20;95.70
54202;DHT22;40108;53.152;5.844;2022-12-07T01:36:23;4.20;95.70
54202;DHT22;40108;53.152;5.844;2022-12-07T01:38:50;4.20;95.60
54202;DHT22;40108;53.152;5.844;2022-12-07T01:41:18;4.20;95.50
54202;DHT22;40108;53.152;5.844;2022-12-07T01:44:14;4.10;95.50
54202;DHT22;40108;53.152;5.844;2022-12-07T01:46:42;4.00;95.50
54202;DHT22;40108;53.152;5.844;2022-12-07T01:49:38;4.00;95.50
54202;DHT22;40108;53.152;5.844;2022-12-07T01:54:34;3.80;95.70
54202;DHT22;40108;53.152;5.844;2022-12-07T01:57:01;3.90;95.80
54202;DHT22;40108;53.152;5.844;2022-12-07T01:59:27;3.90;95.90
54202;DHT22;40108;53.152;5.844;2022-12-07T02:01:54;4.00;96.00
54202;DHT22;40108;53.152;5.844;2022-12-07T02:04:22;4.00;96.10
54202;DHT22;40108;53.152;5.844;2022-12-07T02:06:48;4.00;96.10
54202;DHT22;40108;53.152;5.844;2022-12-07T02:09:15;4.10;96.10
54202;DHT22;40108;53.152;5.844;2022-12-07T02:11:41;4.10;96.10
54202;DHT22;40108;53.152;5.844;2022-12-07T02:14:07;4.10;96.10
54202;DHT22;40108;53.152;5.844;2022-12-07T02:16:43;4.00;96.10
54202;DHT22;40108;53.152;5.844;2022-12-07T02:22:22;4.00;96.00
54202;DHT22;40108;53.152;5.844;2022-12-07T02:25:04;4.00;96.00
54202;DHT22;40108;53.152;5.844;2022-12-07T02:30:19;3.90;95.90
54202;DHT22;40108;53.152;5.844;2022-12-07T02:32:55;3.80;96.00
54202;DHT22;40108;53.152;5.844;2022-12-07T02:40:40;3.90;95.80
54202;DHT22;40108;53.152;5.844;2022-12-07T02:43:12;4.00;95.70
54202;DHT22;40108;53.152;5.844;2022-12-07T02:45:41;4.10;95.60
54202;DHT22;40108;53.152;5.844;2022-12-07T02:48:11;4.20;95.40
54202;DHT22;40108;53.152;5.844;2022-12-07T02:50:37;4.20;95.20
54202;DHT22;40108;53.152;5.844;2022-12-07T02:53:03;4.30;95.00
54202;DHT22;40108;53.152;5.844;2022-12-07T02:55:37;4.40;94.90
54202;DHT22;40108;53.152;5.844;2022-12-07T02:58:20;4.40;94.60
54202;DHT22;40108;53.152;5.844;2022-12-07T03:01:15;4.40;94.50
54202;DHT22;40108;53.152;5.844;2022-12-07T03:03:48;4.40;94.40
54202;DHT22;40108;53.152;5.844;2022-12-07T03:06:22;4.20;94.40
54202;DHT22;40108;53.152;5.844;2022-12-07T03:12:37;4.10;94.40
54202;DHT22;40108;53.152;5.844;2022-12-07T03:14:53;4.00;94.30
54202;DHT22;40108;53.152;5.844;2022-12-07T03:17:32;4.00;94.30
54202;DHT22;40108;53.152;5.844;2022-12-07T03:20:03;3.90;94.30
54202;DHT22;40108;53.152;5.844;2022-12-07T03:22:31;3.80;94.40
54202;DHT22;40108;53.152;5.844;2022-12-07T03:25:00;3.80;94.30
54202;DHT22;40108;53.152;5.844;2022-12-07T03:32:39;4.00;94.60
54202;DHT22;40108;53.152;5.844;2022-12-07T03:35:23;4.00;94.50
54202;DHT22;40108;53.152;5.844;2022-12-07T03:40:33;3.90;94.50
54202;DHT22;40108;53.152;5.844;2022-12-07T03:43:01;4.00;94.40
54202;DHT22;40108;53.152;5.844;2022-12-07T03:57:10;4.30;92.90
54202;DHT22;40108;53.152;5.844;2022-12-07T03:59:38;4.30;92.90
54202;DHT22;40108;53.152;5.844;2022-12-07T04:02:06;4.30;93.00
54202;DHT22;40108;53.152;5.844;2022-12-07T04:04:33;4.40;92.90
54202;DHT22;40108;53.152;5.844;2022-12-07T04:06:59;4.30;92.90
54202;DHT22;40108;53.152;5.844;2022-12-07T04:09:25;4.40;93.00
54202;DHT22;40108;53.152;5.844;2022-12-07T04:11:51;4.20;93.00
54202;DHT22;40108;53.152;5.844;2022-12-07T04:14:17;4.20;93.00
54202;DHT22;40108;53.152;5.844;2022-12-07T04:16:51;4.20;93.00
54202;DHT22;40108;53.152;5.844;2022-12-07T04:19:18;4.20;93.00
54202;DHT22;40108;53.152;5.844;2022-12-07T04:21:44;4.20;92.90
54202;DHT22;40108;53.152;5.844;2022-12-07T04:24:12;4.10;93.00
54202;DHT22;40108;53.152;5.844;2022-12-07T04:26:38;4.00;93.00
54202;DHT22;40108;53.152;5.844;2022-12-07T04:29:04;3.90;92.90
54202;DHT22;40108;53.152;5.844;2022-12-07T04:31:30;3.90;92.90
54202;DHT22;40108;53.152;5.844;2022-12-07T04:33:56;3.80;93.00
54202;DHT22;40108;53.152;5.844;2022-12-07T04:36:22;3.80;93.10
54202;DHT22;40108;53.152;5.844;2022-12-07T04:38:48;3.70;93.10
54202;DHT22;40108;53.152;5.844;2022-12-07T04:41:13;3.70;93.30
54202;DHT22;40108;53.152;5.844;2022-12-07T04:43:39;3.70;93.40
54202;DHT22;40108;53.152;5.844;2022-12-07T04:46:05;3.70;93.50
54202;DHT22;40108;53.152;5.844;2022-12-07T04:48:31;3.70;93.60
54202;DHT22;40108;53.152;5.844;2022-12-07T04:50:56;3.70;93.60
54202;DHT22;40108;53.152;5.844;2022-12-07T04:53:22;3.70;93.70
54202;DHT22;40108;53.152;5.844;2022-12-07T04:55:48;3.70;93.70
54202;DHT22;40108;53.152;5.844;2022-12-07T04:58:14;3.60;93.80
54202;DHT22;40108;53.152;5.844;2022-12-07T05:00:40;3.60;93.90
54202;DHT22;40108;53.152;5.844;2022-12-07T05:03:05;3.60;93.90
54202;DHT22;40108;53.152;5.844;2022-12-07T05:05:31;3.60;94.10
54202;DHT22;40108;53.152;5.844;2022-12-07T05:07:57;3.70;94.30
54202;DHT22;40108;53.152;5.844;2022-12-07T05:10:22;3.70;94.40
54202;DHT22;40108;53.152;5.844;2022-12-07T05:12:48;3.80;94.50
54202;DHT22;40108;53.152;5.844;2022-12-07T05:15:14;3.90;94.60
54202;DHT22;40108;53.152;5.844;2022-12-07T05:17:40;4.00;94.60
54202;DHT22;40108;53.152;5.844;2022-12-07T05:20:07;4.00;94.60
54202;DHT22;40108;53.152;5.844;2022-12-07T05:22:33;4.00;94.50
54202;DHT22;40108;53.152;5.844;2022-12-07T05:24:59;4.10;94.50
54202;DHT22;40108;53.152;5.844;2022-12-07T05:27:24;4.10;94.40
54202;DHT22;40108;53.152;5.844;2022-12-07T05:29:50;4.10;94.40
54202;DHT22;40108;53.152;5.844;2022-12-07T05:32:17;4.10;94.30
54202;DHT22;40108;53.152;5.844;2022-12-07T05:34:43;4.10;94.20
54202;DHT22;40108;53.152;5.844;2022-12-07T05:37:09;4.10;94.20
54202;DHT22;40108;53.152;5.844;2022-12-07T05:39:34;4.10;94.10
54202;DHT22;40108;53.152;5.844;2022-12-07T05:42:00;4.00;94.00
54202;DHT22;40108;53.152;5.844;2022-12-07T05:44:43;3.90;93.90
54202;DHT22;40108;53.152;5.844;2022-12-07T05:47:09;3.90;94.00
54202;DHT22;40108;53.152;5.844;2022-12-07T05:49:35;3.80;94.00
54202;DHT22;40108;53.152;5.844;2022-12-07T05:52:01;3.80;94.00
54202;DHT22;40108;53.152;5.844;2022-12-07T05:54:27;3.70;94.00
54202;DHT22;40108;53.152;5.844;2022-12-07T05:56:53;3.70;94.00
54202;DHT22;40108;53.152;5.844;2022-12-07T05:59:19;3.60;94.00
54202;DHT22;40108;53.152;5.844;2022-12-07T06:01:57;3.50;94.10
54202;DHT22;40108;53.152;5.844;2022-12-07T06:04:24;3.50;94.20
54202;DHT22;40108;53.152;5.844;2022-12-07T06:06:50;3.40;94.30
54202;DHT22;40108;53.152;5.844;2022-12-07T06:09:17;3.40;94.40
54202;DHT22;40108;53.152;5.844;2022-12-07T06:11:43;3.40;94.50
54202;DHT22;40108;53.152;5.844;2022-12-07T06:14:28;3.40;94.50
54202;DHT22;40108;53.152;5.844;2022-12-07T06:16:53;3.40;94.60
54202;DHT22;40108;53.152;5.844;2022-12-07T06:19:19;3.30;94.50
54202;DHT22;40108;53.152;5.844;2022-12-07T06:21:45;3.30;94.50
54202;DHT22;40108;53.152;5.844;2022-12-07T06:24:11;3.20;94.60
54202;DHT22;40108;53.152;5.844;2022-12-07T06:26:37;3.20;94.50
54202;DHT22;40108;53.152;5.844;2022-12-07T06:29:03;3.20;94.60
54202;DHT22;40108;53.152;5.844;2022-12-07T06:31:29;3.10;94.60
54202;DHT22;40108;53.152;5.844;2022-12-07T06:34:03;3.10;94.70
54202;DHT22;40108;53.152;5.844;2022-12-07T06:36:29;3.10;94.60
54202;DHT22;40108;53.152;5.844;2022-12-07T06:38:55;3.00;94.70
54202;DHT22;40108;53.152;5.844;2022-12-07T06:41:21;2.90;94.70
54202;DHT22;40108;53.152;5.844;2022-12-07T06:43:47;2.90;94.70
54202;DHT22;40108;53.152;5.844;2022-12-07T06:46:14;2.90;94.80
54202;DHT22;40108;53.152;5.844;2022-12-07T06:48:40;2.90;94.80
54202;DHT22;40108;53.152;5.844;2022-12-07T06:51:06;2.90;94.80
54202;DHT22;40108;53.152;5.844;2022-12-07T06:53:31;2.90;94.80
54202;DHT22;40108;53.152;5.844;2022-12-07T06:55:57;2.80;94.90
54202;DHT22;40108;53.152;5.844;2022-12-07T06:58:23;2.90;94.90
54202;DHT22;40108;53.152;5.844;2022-12-07T07:00:49;3.00;95.10
54202;DHT22;40108;53.152;5.844;2022-12-07T07:03:16;3.10;95.10
54202;DHT22;40108;53.152;5.844;2022-12-07T07:05:42;3.20;94.90
54202;DHT22;40108;53.152;5.844;2022-12-07T07:08:08;3.30;94.80
54202;DHT22;40108;53.152;5.844;2022-12-07T07:10:35;3.30;94.60
54202;DHT22;40108;53.152;5.844;2022-12-07T07:13:00;3.30;94.60
54202;DHT22;40108;53.152;5.844;2022-12-07T07:15:26;3.20;94.50
54202;DHT22;40108;53.152;5.844;2022-12-07T07:17:52;3.20;94.50
54202;DHT22;40108;53.152;5.844;2022-12-07T07:20:18;3.20;94.50
54202;DHT22;40108;53.152;5.844;2022-12-07T07:22:43;3.20;94.50
54202;DHT22;40108;53.152;5.844;2022-12-07T07:25:09;3.20;94.50
54202;DHT22;40108;53.152;5.844;2022-12-07T07:27:35;3.20;94.60
54202;DHT22;40108;53.152;5.844;2022-12-07T07:30:00;3.30;94.60
54202;DHT22;40108;53.152;5.844;2022-12-07T07:32:26;3.30;94.60
54202;DHT22;40108;53.152;5.844;2022-12-07T07:34:52;3.40;94.60
54202;DHT22;40108;53.152;5.844;2022-12-07T07:37:18;3.30;94.60
54202;DHT22;40108;53.152;5.844;2022-12-07T07:39:43;3.30;94.60
54202;DHT22;40108;53.152;5.844;2022-12-07T07:42:09;3.40;94.60
54202;DHT22;40108;53.152;5.844;2022-12-07T07:44:35;3.30;94.60
54202;DHT22;40108;53.152;5.844;2022-12-07T07:47:00;3.40;94.40
54202;DHT22;40108;53.152;5.844;2022-12-07T07:49:26;3.50;94.60
54202;DHT22;40108;53.152;5.844;2022-12-07T07:51:52;3.60;94.70
54202;DHT22;40108;53.152;5.844;2022-12-07T07:54:18;3.70;94.70
54202;DHT22;40108;53.152;5.844;2022-12-07T07:56:43;3.80;94.50
54202;DHT22;40108;53.152;5.844;2022-12-07T07:59:12;3.80;94.50
54202;DHT22;40108;53.152;5.844;2022-12-07T08:01:37;3.80;94.40
54202;DHT22;40108;53.152;5.844;2022-12-07T08:04:03;3.80;94.30
54202;DHT22;40108;53.152;5.844;2022-12-07T08:06:29;3.80;94.30
54202;DHT22;40108;53.152;5.844;2022-12-07T08:08:54;3.80;94.20
54202;DHT22;40108;53.152;5.844;2022-12-07T08:11:20;3.70;94.20
54202;DHT22;40108;53.152;5.844;2022-12-07T08:13:46;3.70;94.20
54202;DHT22;40108;53.152;5.844;2022-12-07T08:16:13;3.70;94.20
54202;DHT22;40108;53.152;5.844;2022-12-07T08:18:41;3.70;94.30
54202;DHT22;40108;53.152;5.844;2022-12-07T08:21:11;3.70;94.40
54202;DHT22;40108;53.152;5.844;2022-12-07T08:23:37;3.70;94.50
54202;DHT22;40108;53.152;5.844;2022-12-07T08:26:08;3.80;94.50
54202;DHT22;40108;53.152;5.844;2022-12-07T08:28:35;3.90;94.40
54202;DHT22;40108;53.152;5.844;2022-12-07T08:31:06;4.10;94.30
54202;DHT22;40108;53.152;5.844;2022-12-07T08:33:33;4.10;94.30
54202;DHT22;40108;53.152;5.844;2022-12-07T08:36:10;4.10;94.10
54202;DHT22;40108;53.152;5.844;2022-12-07T08:38:38;4.10;94.10
54202;DHT22;40108;53.152;5.844;2022-12-07T08:41:04;4.10;94.00
54202;DHT22;40108;53.152;5.844;2022-12-07T08:43:30;4.10;93.90
54202;DHT22;40108;53.152;5.844;2022-12-07T08:48:38;4.10;94.00
54202;DHT22;40108;53.152;5.844;2022-12-07T08:51:04;4.10;93.80
54202;DHT22;40108;53.152;5.844;2022-12-07T08:53:30;4.10;93.80
54202;DHT22;40108;53.152;5.844;2022-12-07T08:55:57;4.10;93.80
54202;DHT22;40108;53.152;5.844;2022-12-07T08:58:24;4.10;93.70
54202;DHT22;40108;53.152;5.844;2022-12-07T09:00:49;4.10;93.60
54202;DHT22;40108;53.152;5.844;2022-12-07T09:03:15;4.00;93.60
54202;DHT22;40108;53.152;5.844;2022-12-07T09:05:41;4.00;93.60
54202;DHT22;40108;53.152;5.844;2022-12-07T09:08:08;4.00;93.60
54202;DHT22;40108;53.152;5.844;2022-12-07T09:10:33;4.00;93.60
54202;DHT22;40108;53.152;5.844;2022-12-07T09:12:59;4.00;93.70
54202;DHT22;40108;53.152;5.844;2022-12-07T09:15:29;4.00;93.70
54202;DHT22;40108;53.152;5.844;2022-12-07T09:17:54;4.10;93.70
54202;DHT22;40108;53.152;5.844;2022-12-07T09:20:20;4.20;94.00
54202;DHT22;40108;53.152;5.844;2022-12-07T09:22:46;4.40;94.20
54202;DHT22;40108;53.152;5.844;2022-12-07T09:25:12;4.60;94.40
54202;DHT22;40108;53.152;5.844;2022-12-07T09:27:37;4.90;94.40
54202;DHT22;40108;53.152;5.844;2022-12-07T09:30:04;5.20;94.40
54202;DHT22;40108;53.152;5.844;2022-12-07T09:32:30;5.40;94.40
54202;DHT22;40108;53.152;5.844;2022-12-07T09:34:56;5.70;94.20
54202;DHT22;40108;53.152;5.844;2022-12-07T09:37:22;5.70;93.60
54202;DHT22;40108;53.152;5.844;2022-12-07T09:39:47;5.70;93.30
54202;DHT22;40108;53.152;5.844;2022-12-07T09:42:26;5.60;92.60
54202;DHT22;40108;53.152;5.844;2022-12-07T09:44:53;5.60;92.60
54202;DHT22;40108;53.152;5.844;2022-12-07T09:47:19;5.50;92.60
54202;DHT22;40108;53.152;5.844;2022-12-07T09:49:44;5.40;92.50
54202;DHT22;40108;53.152;5.844;2022-12-07T09:52:17;5.40;92.40
54202;DHT22;40108;53.152;5.844;2022-12-07T09:54:46;5.40;92.70
54202;DHT22;40108;53.152;5.844;2022-12-07T09:57:12;5.50;93.20
54202;DHT22;40108;53.152;5.844;2022-12-07T09:59:39;5.70;93.30
54202;DHT22;40108;53.152;5.844;2022-12-07T10:02:36;6.00;93.30
54202;DHT22;40108;53.152;5.844;2022-12-07T10:05:24;6.20;92.90
54202;DHT22;40108;53.152;5.844;2022-12-07T10:07:51;6.50;92.90
54202;DHT22;40108;53.152;5.844;2022-12-07T10:10:30;6.70;92.70
54202;DHT22;40108;53.152;5.844;2022-12-07T10:15:54;7.10;91.60
54202;DHT22;40108;53.152;5.844;2022-12-07T10:18:40;7.20;91.00
54202;DHT22;40108;53.152;5.844;2022-12-07T10:21:18;7.40;90.20
54202;DHT22;40108;53.152;5.844;2022-12-07T10:26:38;7.80;89.80
54202;DHT22;40108;53.152;5.844;2022-12-07T10:31:45;8.00;85.30
54202;DHT22;40108;53.152;5.844;2022-12-07T10:34:22;7.80;84.60
54202;DHT22;40108;53.152;5.844;2022-12-07T10:36:53;7.50;84.80
54202;DHT22;40108;53.152;5.844;2022-12-07T10:39:23;7.20;83.30
54202;DHT22;40108;53.152;5.844;2022-12-07T10:41:57;6.90;84.40
54202;DHT22;40108;53.152;5.844;2022-12-07T10:44:31;6.70;85.50
54202;DHT22;40108;53.152;5.844;2022-12-07T10:50:28;6.50;86.40
54202;DHT22;40108;53.152;5.844;2022-12-07T10:55:47;6.30;86.80
54202;DHT22;40108;53.152;5.844;2022-12-07T11:12:26;5.90;88.30
54202;DHT22;40108;53.152;5.844;2022-12-07T11:20:43;5.80;89.00
54202;DHT22;40108;53.152;5.844;2022-12-07T11:32:14;5.90;89.80
54202;DHT22;40108;53.152;5.844;2022-12-07T11:37:28;6.10;89.50
54202;DHT22;40108;53.152;5.844;2022-12-07T11:40:00;6.00;89.20
54202;DHT22;40108;53.152;5.844;2022-12-07T11:42:45;6.00;89.50
54202;DHT22;40108;53.152;5.844;2022-12-07T11:45:30;6.00;89.80
54202;DHT22;40108;53.152;5.844;2022-12-07T11:48:15;6.00;90.00
54202;DHT22;40108;53.152;5.844;2022-12-07T11:50:52;6.00;90.20
54202;DHT22;40108;53.152;5.844;2022-12-07T11:53:26;5.90;90.00
54202;DHT22;40108;53.152;5.844;2022-12-07T11:56:04;5.80;89.20
54202;DHT22;40108;53.152;5.844;2022-12-07T12:06:39;5.80;89.50
54202;DHT22;40108;53.152;5.844;2022-12-07T12:09:12;5.80;89.60
54202;DHT22;40108;53.152;5.844;2022-12-07T12:14:46;5.90;89.00
54202;DHT22;40108;53.152;5.844;2022-12-07T12:20:24;5.80;89.20
54202;DHT22;40108;53.152;5.844;2022-12-07T12:23:12;5.70;89.00
54202;DHT22;40108;53.152;5.844;2022-12-07T12:33:55;5.70;89.90
54202;DHT22;40108;53.152;5.844;2022-12-07T12:47:03;5.70;90.70
54202;DHT22;40108;53.152;5.844;2022-12-07T12:49:40;5.70;90.70
54202;DHT22;40108;53.152;5.844;2022-12-07T12:54:36;5.80;90.60
54202;DHT22;40108;53.152;5.844;2022-12-07T12:57:13;5.90;90.40
54202;DHT22;40108;53.152;5.844;2022-12-07T13:02:32;5.80;90.40
54202;DHT22;40108;53.152;5.844;2022-12-07T13:04:59;5.80;90.50
54202;DHT22;40108;53.152;5.844;2022-12-07T13:07:51;5.70;90.30
54202;DHT22;40108;53.152;5.844;2022-12-07T13:15:38;5.40;89.90
54202;DHT22;40108;53.152;5.844;2022-12-07T13:28:49;5.20;90.50
54202;DHT22;40108;53.152;5.844;2022-12-07T13:33:55;5.20;90.60
54202;DHT22;40108;53.152;5.844;2022-12-07T13:36:22;5.20;90.60
54202;DHT22;40108;53.152;5.844;2022-12-07T13:38:56;5.20;90.60
54202;DHT22;40108;53.152;5.844;2022-12-07T13:41:28;5.10;90.60
54202;DHT22;40108;53.152;5.844;2022-12-07T13:44:08;5.10;90.50
54202;DHT22;40108;53.152;5.844;2022-12-07T13:49:44;4.90;90.30
54202;DHT22;40108;53.152;5.844;2022-12-07T13:52:19;4.90;90.40
54202;DHT22;40108;53.152;5.844;2022-12-07T13:57:21;4.90;90.60
54202;DHT22;40108;53.152;5.844;2022-12-07T13:59:47;4.80;90.60
54202;DHT22;40108;53.152;5.844;2022-12-07T14:02:22;4.80;90.60
54202;DHT22;40108;53.152;5.844;2022-12-07T14:04:51;4.70;90.60
54202;DHT22;40108;53.152;5.844;2022-12-07T14:07:27;4.70;90.60
54202;DHT22;40108;53.152;5.844;2022-12-07T14:09:59;4.70;90.70
54202;DHT22;40108;53.152;5.844;2022-12-07T14:12:27;4.70;90.80
54202;DHT22;40108;53.152;5.844;2022-12-07T14:14:54;4.60;90.80
54202;DHT22;40108;53.152;5.844;2022-12-07T14:17:23;4.60;90.70
54202;DHT22;40108;53.152;5.844;2022-12-07T14:19:57;4.50;90.70
54202;DHT22;40108;53.152;5.844;2022-12-07T14:22:33;4.50;90.80
54202;DHT22;40108;53.152;5.844;2022-12-07T14:25:16;4.40;90.80
54202;DHT22;40108;53.152;5.844;2022-12-07T14:28:00;4.40;90.80
54202;DHT22;40108;53.152;5.844;2022-12-07T14:30:31;4.30;90.90
54202;DHT22;40108;53.152;5.844;2022-12-07T14:33:03;4.20;91.00
54202;DHT22;40108;53.152;5.844;2022-12-07T14:35:29;4.20;91.00
54202;DHT22;40108;53.152;5.844;2022-12-07T14:37:56;4.20;91.10
54202;DHT22;40108;53.152;5.844;2022-12-07T14:40:24;4.10;91.20
54202;DHT22;40108;53.152;5.844;2022-12-07T14:43:00;4.00;91.30
54202;DHT22;40108;53.152;5.844;2022-12-07T14:45:27;4.00;91.40
54202;DHT22;40108;53.152;5.844;2022-12-07T14:47:53;3.90;91.50
54202;DHT22;40108;53.152;5.844;2022-12-07T14:50:20;3.90;91.60
54202;DHT22;40108;53.152;5.844;2022-12-07T14:52:58;3.90;91.70
54202;DHT22;40108;53.152;5.844;2022-12-07T14:55:27;3.80;91.80
54202;DHT22;40108;53.152;5.844;2022-12-07T14:57:53;3.80;91.80
54202;DHT22;40108;53.152;5.844;2022-12-07T15:00:23;3.80;91.90
54202;DHT22;40108;53.152;5.844;2022-12-07T15:02:49;3.70;92.10
54202;DHT22;40108;53.152;5.844;2022-12-07T15:05:15;3.70;92.40
54202;DHT22;40108;53.152;5.844;2022-12-07T15:07:41;3.70;92.50
54202;DHT22;40108;53.152;5.844;2022-12-07T15:10:19;3.70;92.60
54202;DHT22;40108;53.152;5.844;2022-12-07T15:12:45;3.70;92.70
54202;DHT22;40108;53.152;5.844;2022-12-07T15:15:11;3.70;92.60
54202;DHT22;40108;53.152;5.844;2022-12-07T15:17:36;3.70;92.70
54202;DHT22;40108;53.152;5.844;2022-12-07T15:20:03;3.70;92.80
54202;DHT22;40108;53.152;5.844;2022-12-07T15:22:30;3.70;92.70
54202;DHT22;40108;53.152;5.844;2022-12-07T15:24:57;3.70;92.80
54202;DHT22;40108;53.152;5.844;2022-12-07T15:27:23;3.70;92.90
54202;DHT22;40108;53.152;5.844;2022-12-07T15:29:48;3.70;92.90
54202;DHT22;40108;53.152;5.844;2022-12-07T15:32:17;3.70;93.10
54202;DHT22;40108;53.152;5.844;2022-12-07T15:34:43;3.70;93.20
54202;DHT22;40108;53.152;5.844;2022-12-07T15:37:09;3.70;93.30
54202;DHT22;40108;53.152;5.844;2022-12-07T15:39:36;3.70;93.30
54202;DHT22;40108;53.152;5.844;2022-12-07T15:42:02;3.70;93.10
54202;DHT22;40108;53.152;5.844;2022-12-07T15:44:28;3.70;93.20
54202;DHT22;40108;53.152;5.844;2022-12-07T15:47:12;3.70;93.30
54202;DHT22;40108;53.152;5.844;2022-12-07T15:49:38;3.70;93.30
54202;DHT22;40108;53.152;5.844;2022-12-07T15:52:03;3.70;93.30
54202;DHT22;40108;53.152;5.844;2022-12-07T15:54:29;3.70;93.30
54202;DHT22;40108;53.152;5.844;2022-12-07T15:56:56;3.70;93.30
54202;DHT22;40108;53.152;5.844;2022-12-07T15:59:22;3.70;93.30
54202;DHT22;40108;53.152;5.844;2022-12-07T16:01:47;3.70;93.20
54202;DHT22;40108;53.152;5.844;2022-12-07T16:04:13;3.60;93.30
54202;DHT22;40108;53.152;5.844;2022-12-07T16:06:39;3.60;93.30
54202;DHT22;40108;53.152;5.844;2022-12-07T16:09:05;3.60;93.40
54202;DHT22;40108;53.152;5.844;2022-12-07T16:11:31;3.50;93.40
54202;DHT22;40108;53.152;5.844;2022-12-07T16:13:57;3.60;93.40
54202;DHT22;40108;53.152;5.844;2022-12-07T16:16:23;3.50;93.40
54202;DHT22;40108;53.152;5.844;2022-12-07T16:18:49;3.50;93.50
54202;DHT22;40108;53.152;5.844;2022-12-07T16:21:16;3.50;93.50
54202;DHT22;40108;53.152;5.844;2022-12-07T16:23:43;3.50;93.50
54202;DHT22;40108;53.152;5.844;2022-12-07T16:26:14;3.40;93.50
54202;DHT22;40108;53.152;5.844;2022-12-07T16:28:41;3.40;93.50
54202;DHT22;40108;53.152;5.844;2022-12-07T16:31:10;3.30;93.40
54202;DHT22;40108;53.152;5.844;2022-12-07T16:33:37;3.30;93.40
54202;DHT22;40108;53.152;5.844;2022-12-07T16:36:04;3.30;93.30
54202;DHT22;40108;53.152;5.844;2022-12-07T16:38:31;3.20;93.30
54202;DHT22;40108;53.152;5.844;2022-12-07T16:40:56;3.20;93.40
54202;DHT22;40108;53.152;5.844;2022-12-07T16:43:22;3.20;93.30
54202;DHT22;40108;53.152;5.844;2022-12-07T16:45:48;3.20;93.30
54202;DHT22;40108;53.152;5.844;2022-12-07T16:48:15;3.20;93.40
54202;DHT22;40108;53.152;5.844;2022-12-07T16:50:42;3.10;93.40
54202;DHT22;40108;53.152;5.844;2022-12-07T16:53:09;3.00;93.40
54202;DHT22;40108;53.152;5.844;2022-12-07T16:55:39;3.00;93.40
54202;DHT22;40108;53.152;5.844;2022-12-07T16:58:05;3.00;93.50
54202;DHT22;40108;53.152;5.844;2022-12-07T17:00:32;3.00;93.60
54202;DHT22;40108;53.152;5.844;2022-12-07T17:02:58;3.00;93.70
54202;DHT22;40108;53.152;5.844;2022-12-07T17:05:24;3.00;93.70
54202;DHT22;40108;53.152;5.844;2022-12-07T17:07:50;3.00;93.70
54202;DHT22;40108;53.152;5.844;2022-12-07T17:10:16;3.10;93.80
54202;DHT22;40108;53.152;5.844;2022-12-07T17:12:42;3.10;94.00
54202;DHT22;40108;53.152;5.844;2022-12-07T17:15:08;3.20;94.00
54202;DHT22;40108;53.152;5.844;2022-12-07T17:20:19;3.20;94.10
54202;DHT22;40108;53.152;5.844;2022-12-07T17:22:46;3.20;94.10
54202;DHT22;40108;53.152;5.844;2022-12-07T17:25:12;3.20;94.10
54202;DHT22;40108;53.152;5.844;2022-12-07T17:27:38;3.20;94.20
54202;DHT22;40108;53.152;5.844;2022-12-07T17:30:05;3.20;94.30
54202;DHT22;40108;53.152;5.844;2022-12-07T17:32:31;3.30;94.40
54202;DHT22;40108;53.152;5.844;2022-12-07T17:34:57;3.30;94.40
54202;DHT22;40108;53.152;5.844;2022-12-07T17:37:23;3.30;94.40
54202;DHT22;40108;53.152;5.844;2022-12-07T17:39:49;3.40;94.40
54202;DHT22;40108;53.152;5.844;2022-12-07T17:42:15;3.30;94.20
54202;DHT22;40108;53.152;5.844;2022-12-07T17:44:59;3.30;94.20
54202;DHT22;40108;53.152;5.844;2022-12-07T17:47:25;3.30;94.30
54202;DHT22;40108;53.152;5.844;2022-12-07T17:49:50;3.30;94.30
54202;DHT22;40108;53.152;5.844;2022-12-07T17:52:16;3.20;94.30
54202;DHT22;40108;53.152;5.844;2022-12-07T17:55:00;3.30;94.20
54202;DHT22;40108;53.152;5.844;2022-12-07T17:57:26;3.20;94.20
54202;DHT22;40108;53.152;5.844;2022-12-07T17:59:52;3.20;94.30
54202;DHT22;40108;53.152;5.844;2022-12-07T18:02:20;3.20;94.30
54202;DHT22;40108;53.152;5.844;2022-12-07T18:04:45;3.20;94.30
54202;DHT22;40108;53.152;5.844;2022-12-07T18:07:12;3.20;94.20
54202;DHT22;40108;53.152;5.844;2022-12-07T18:09:38;3.10;94.30
54202;DHT22;40108;53.152;5.844;2022-12-07T18:12:05;3.10;94.40
54202;DHT22;40108;53.152;5.844;2022-12-07T18:14:31;3.10;94.30
54202;DHT22;40108;53.152;5.844;2022-12-07T18:16:56;3.10;94.50
54202;DHT22;40108;53.152;5.844;2022-12-07T18:19:22;3.00;94.50
54202;DHT22;40108;53.152;5.844;2022-12-07T18:21:48;3.00;94.60
54202;DHT22;40108;53.152;5.844;2022-12-07T18:24:15;3.10;94.50